Terminal Aerodrome Forecast
Issued by NWS Goodland, KS

Current Version | Previous Version | Text Only | Print | Product List | Glossary On
Versions: 1 2 3 4 5 6 7 8 9 10 11 12 13 14
000
FTUS43 KGLD 031720
TAFGLD
TAF
KGLD 031720Z 0318/0418 15011KT P6SM SCT250
     FM032000 14012G20KT P6SM FEW250
     FM040100 18007KT P6SM BKN250
     FM040900 18005KT P6SM SCT030=

USA.gov is the U.S. government's official web portal to all federal, state and local government web resources and services.